createdAt,value
2018-02-05T00:00:18.063Z,28.37
2018-02-05T00:02:45.671Z,26.70
2018-02-05T00:05:13.195Z,28.63
2018-02-05T00:07:41.461Z,25.83
2018-02-05T00:10:09.058Z,26.63
2018-02-05T00:12:36.570Z,30.73
2018-02-05T00:15:04.174Z,29.17
2018-02-05T00:17:31.681Z,30.77
2018-02-05T00:19:59.207Z,30.50
2018-02-05T00:22:26.714Z,27.40
2018-02-05T00:24:54.234Z,28.97
2018-02-05T00:27:21.742Z,30.80
2018-02-05T00:29:50.033Z,30.60
2018-02-05T00:32:18.304Z,27.97
2018-02-05T00:34:46.569Z,29.80
2018-02-05T00:37:14.870Z,28.33
2018-02-05T00:39:42.426Z,27.93
2018-02-05T00:42:09.950Z,28.67
2018-02-05T00:44:37.458Z,28.90
2018-02-05T00:47:04.982Z,27.87
2018-02-05T00:49:33.258Z,27.00
2018-02-05T00:52:01.546Z,28.13
2018-02-05T00:54:29.054Z,27.50
2018-02-05T00:56:56.574Z,29.03
2018-02-05T00:59:24.138Z,28.37
2018-02-05T01:01:51.662Z,26.83
2018-02-05T01:04:19.263Z,26.93
2018-02-05T01:06:46.791Z,28.47
2018-02-05T01:09:15.082Z,25.67
2018-02-05T01:11:42.602Z,26.37
2018-02-05T01:14:10.111Z,27.57
2018-02-05T01:16:37.634Z,26.50
2018-02-05T01:19:05.920Z,25.97
2018-02-05T01:21:34.333Z,27.07
2018-02-05T01:24:01.850Z,26.50
2018-02-05T01:26:30.134Z,26.60
2018-02-05T01:28:58.401Z,27.57
2018-02-05T01:31:26.710Z,29.87
2018-02-05T01:33:54.246Z,29.10
2018-02-05T01:36:22.530Z,27.80
2018-02-05T01:38:50.795Z,28.87
2018-02-05T01:41:19.086Z,32.17
2018-02-05T01:43:46.600Z,31.70
2018-02-05T01:46:14.122Z,28.93
2018-02-05T01:48:41.672Z,28.50
2018-02-05T01:51:09.190Z,29.20
2018-02-05T01:53:36.698Z,28.27
2018-02-05T01:56:04.222Z,30.27
2018-02-05T01:58:32.489Z,27.70
2018-02-05T02:01:00.019Z,29.23
2018-02-05T02:03:27.530Z,29.27
2018-02-05T02:05:55.056Z,29.80
2018-02-05T02:08:22.813Z,30.80
2018-02-05T02:10:50.421Z,29.87
2018-02-05T02:13:18.027Z,31.63
2018-02-05T02:15:45.518Z,30.63
2018-02-05T02:18:13.781Z,29.60
2018-02-05T02:20:42.071Z,30.23
2018-02-05T02:23:10.342Z,29.17
2018-02-05T02:25:38.625Z,28.07
2018-02-05T02:28:06.899Z,27.33
2018-02-05T02:30:35.184Z,29.23
2018-02-05T02:33:02.698Z,29.27
2018-02-05T02:35:30.315Z,27.50
2018-02-05T02:37:57.823Z,25.00
2018-02-05T02:40:25.331Z,22.20
2018-02-05T02:42:52.882Z,22.50
2018-02-05T02:45:20.389Z,24.33
2018-02-05T02:47:47.911Z,21.60
2018-02-05T02:50:15.416Z,23.17
2018-02-05T02:52:44.443Z,21.70
2018-02-05T02:55:12.712Z,23.87
2018-02-05T02:57:41.104Z,21.67
2018-02-05T03:00:08.675Z,23.40
2018-02-05T03:02:36.236Z,24.77
2018-02-05T03:05:03.742Z,23.17
2018-02-05T03:07:31.261Z,23.77
2018-02-05T03:09:59.066Z,22.50
2018-02-05T03:12:26.598Z,23.43
2018-02-05T03:14:54.124Z,23.53
2018-02-05T03:17:21.646Z,22.33
2018-02-05T03:19:49.166Z,21.10
2018-02-05T03:22:16.687Z,22.10
2018-02-05T03:24:44.983Z,20.00
2018-02-05T03:27:12.505Z,20.00
2018-02-05T03:29:40.782Z,19.87
2018-02-05T03:32:09.098Z,20.77
2018-02-05T03:34:36.626Z,21.00
2018-02-05T03:37:04.912Z,21.47
2018-02-05T03:39:33.178Z,20.23
2018-02-05T03:42:01.471Z,19.37
2018-02-05T03:44:28.974Z,20.30
2018-02-05T03:46:56.494Z,22.63
2018-02-05T03:49:24.005Z,24.30
2018-02-05T03:51:51.524Z,24.67
2018-02-05T03:54:19.028Z,23.50
2018-02-05T03:56:46.888Z,21.67
2018-02-05T03:59:14.398Z,22.93
2018-02-05T04:01:41.937Z,19.97
2018-02-05T04:04:10.210Z,23.13
2018-02-05T04:06:44.122Z,23.23
2018-02-05T04:09:12.391Z,21.87
2018-02-05T04:11:40.677Z,22.40
2018-02-05T04:14:08.182Z,22.03
2018-02-05T04:16:35.706Z,23.93
2018-02-05T04:19:03.209Z,21.90
2018-02-05T04:21:30.729Z,20.60
2018-02-05T04:23:58.490Z,22.17
2018-02-05T04:26:26.043Z,20.57
2018-02-05T04:28:53.563Z,22.83
2018-02-05T04:31:21.086Z,21.43
2018-02-05T04:33:48.589Z,20.03
2018-02-05T04:36:16.881Z,22.90
2018-02-05T04:38:45.145Z,22.43
2018-02-05T04:41:13.430Z,22.27
2018-02-05T04:43:41.700Z,22.90
2018-02-05T04:46:09.998Z,22.00
2018-02-05T04:48:37.502Z,21.40
2018-02-05T04:51:04.997Z,22.63
2018-02-05T04:53:33.291Z,22.37
2018-02-05T04:56:00.809Z,22.43
2018-02-05T04:58:28.326Z,21.33
2018-02-05T05:00:55.826Z,20.80
2018-02-05T05:03:23.424Z,23.67
2018-02-05T05:05:50.926Z,22.73
2018-02-05T05:08:18.447Z,24.50
2018-02-05T05:10:45.954Z,24.47
2018-02-05T05:13:13.557Z,23.10
2018-02-05T05:15:41.062Z,23.63
2018-02-05T05:18:08.582Z,24.87
2018-02-05T05:20:36.089Z,22.00
2018-02-05T05:23:03.609Z,22.03
2018-02-05T05:25:31.110Z,20.97
2018-02-05T05:27:58.626Z,21.70
2018-02-05T05:30:26.134Z,22.80
2018-02-05T05:32:54.443Z,23.07
2018-02-05T05:35:21.946Z,23.53
2018-02-05T05:37:49.476Z,25.10
2018-02-05T05:40:16.981Z,24.90
2018-02-05T05:42:44.502Z,22.03
2018-02-05T05:45:12.009Z,21.60
2018-02-05T05:47:40.293Z,25.23
2018-02-05T05:50:08.553Z,24.83
2018-02-05T05:52:36.841Z,23.10
2018-02-05T05:55:05.169Z,25.10
2018-02-05T05:57:32.662Z,23.63
2018-02-05T06:00:00.966Z,23.47
2018-02-05T06:02:28.495Z,21.83
2018-02-05T06:04:56.767Z,21.93
2018-02-05T06:07:24.290Z,21.10
2018-02-05T06:09:51.819Z,23.47
2018-02-05T06:12:19.378Z,22.83
2018-02-05T06:14:46.881Z,23.33
2018-02-05T06:17:14.399Z,25.20
2018-02-05T06:19:41.911Z,22.63
2018-02-05T06:22:09.438Z,22.97
2018-02-05T06:24:36.942Z,26.50
2018-02-05T06:27:05.231Z,21.90
2018-02-05T06:29:33.503Z,24.17
2018-02-05T06:32:01.786Z,25.30
2018-02-05T06:34:30.055Z,25.33
2018-02-05T06:36:58.350Z,23.90
2018-02-05T06:39:25.854Z,22.00
2018-02-05T06:41:53.370Z,25.80
2018-02-05T06:44:20.874Z,25.03
2018-02-05T06:46:48.379Z,23.23
2018-02-05T06:49:15.897Z,23.97
2018-02-05T06:51:55.171Z,21.80
2018-02-05T06:54:34.534Z,23.60
2018-02-05T06:57:02.089Z,24.23
2018-02-05T06:59:29.594Z,23.07
2018-02-05T07:01:58.621Z,21.57
2018-02-05T07:04:26.142Z,22.70
2018-02-05T07:06:53.743Z,21.70
2018-02-05T07:09:21.405Z,25.20
2018-02-05T07:11:48.910Z,22.07
2018-02-05T07:14:16.442Z,23.77
2018-02-05T07:16:43.946Z,22.47
2018-02-05T07:19:11.473Z,22.57
2018-02-05T07:21:38.983Z,22.80
2018-02-05T07:24:06.507Z,23.30
2018-02-05T07:26:34.782Z,22.00
2018-02-05T07:29:02.314Z,22.83
2018-02-05T07:31:29.823Z,21.13
2018-02-05T07:33:58.109Z,25.53
2018-02-05T07:36:26.378Z,19.57
2018-02-05T07:38:54.666Z,19.43
2018-02-05T07:41:22.170Z,20.50
2018-02-05T07:43:49.685Z,18.97
2018-02-05T07:46:17.198Z,19.23
2018-02-05T07:48:44.801Z,18.00
2018-02-05T07:51:12.302Z,18.77
2018-02-05T07:53:39.822Z,21.03
2018-02-05T07:56:07.383Z,18.60
2018-02-05T07:58:34.907Z,17.17
2018-02-05T08:01:02.499Z,17.43
2018-02-05T08:03:30.374Z,21.63
2018-02-05T08:05:57.874Z,17.60
2018-02-05T08:08:25.393Z,15.53
2018-02-05T08:10:52.894Z,17.10
2018-02-05T08:13:20.418Z,16.43
2018-02-05T08:15:47.954Z,17.90
2018-02-05T08:18:15.890Z,16.73
2018-02-05T08:20:44.202Z,16.27
2018-02-05T08:23:11.730Z,15.53
2018-02-05T08:25:39.998Z,16.43
2018-02-05T08:28:07.609Z,16.40
2018-02-05T08:30:35.114Z,19.57
2018-02-05T08:33:02.641Z,17.20
2018-02-05T08:35:30.146Z,18.47
2018-02-05T08:37:58.422Z,17.53
2018-02-05T08:40:26.722Z,17.53
2018-02-05T08:42:54.230Z,18.57
2018-02-05T08:45:21.750Z,18.07
2018-02-05T08:47:49.293Z,18.07
2018-02-05T08:50:16.810Z,18.10
2018-02-05T08:52:44.314Z,18.20
2018-02-05T08:55:11.838Z,18.47
2018-02-05T08:57:39.345Z,16.10
2018-02-05T09:00:06.862Z,19.50
2018-02-05T09:02:35.138Z,17.80
2018-02-05T09:05:03.427Z,17.30
2018-02-05T09:07:31.695Z,15.30
2018-02-05T09:09:59.982Z,16.57
2018-02-05T09:12:28.253Z,17.07
2018-02-05T09:14:56.542Z,16.30
2018-02-05T09:17:24.054Z,16.67
2018-02-05T09:19:51.574Z,16.03
2018-02-05T09:22:19.437Z,16.30
2018-02-05T09:24:46.962Z,18.10
2018-02-05T09:27:15.238Z,17.20
2018-02-05T09:29:43.530Z,16.67
2018-02-05T09:32:11.802Z,17.30
2018-02-05T09:34:40.102Z,15.90
2018-02-05T09:37:07.607Z,16.13
2018-02-05T09:39:35.893Z,16.70
2018-02-05T09:42:03.905Z,18.43
2018-02-05T09:44:31.430Z,24.50
2018-02-05T09:46:59.705Z,18.73
2018-02-05T09:49:27.995Z,16.70
2018-02-05T09:51:56.267Z,16.90
2018-02-05T09:54:24.659Z,16.20
2018-02-05T09:56:52.171Z,16.70
2018-02-05T09:59:19.694Z,14.80
2018-02-05T10:01:47.234Z,15.80
2018-02-05T10:04:14.756Z,17.80
2018-02-05T10:06:42.264Z,15.87
2018-02-05T10:09:09.790Z,16.90
2018-02-05T10:11:38.060Z,14.80
2018-02-05T10:14:06.350Z,15.40
2018-02-05T10:16:34.619Z,15.60
2018-02-05T10:19:02.906Z,16.63
2018-02-05T10:21:30.415Z,16.97
2018-02-05T10:23:58.034Z,14.67
2018-02-05T10:26:25.547Z,18.53
2018-02-05T10:28:53.065Z,14.37
2018-02-05T10:31:20.566Z,16.07
2018-02-05T10:33:48.099Z,13.83
2018-02-05T10:36:15.618Z,27.40
2018-02-05T10:38:43.121Z,22.67
2018-02-05T10:41:10.638Z,14.47
2018-02-05T10:43:38.143Z,14.67
2018-02-05T10:46:05.666Z,14.20
2018-02-05T10:48:33.169Z,14.20
2018-02-05T10:51:00.687Z,12.77
2018-02-05T10:53:28.198Z,13.60
2018-02-05T10:55:55.718Z,12.50
2018-02-05T10:58:23.991Z,8.50
2018-02-05T11:00:51.505Z,12.40
2018-02-05T11:03:19.770Z,11.20
2018-02-05T11:05:48.058Z,12.60
2018-02-05T11:08:16.329Z,11.13
2018-02-05T11:10:44.610Z,10.43
2018-02-05T11:13:12.874Z,12.60
2018-02-05T11:15:41.191Z,11.97
2018-02-05T11:18:08.694Z,12.97
2018-02-05T11:20:36.219Z,12.80
2018-02-05T11:23:03.753Z,12.53
2018-02-05T11:25:32.033Z,13.17
2018-02-05T11:27:59.533Z,12.67
2018-02-05T11:30:27.052Z,13.90
2018-02-05T11:32:54.557Z,14.00
2018-02-05T11:35:22.078Z,16.50
2018-02-05T11:37:49.587Z,14.33
2018-02-05T11:40:17.109Z,14.03
2018-02-05T11:42:44.610Z,14.03
2018-02-05T11:45:13.179Z,13.80
2018-02-05T11:47:40.683Z,13.60
2018-02-05T11:50:08.208Z,14.40
2018-02-05T11:52:36.474Z,15.47
2018-02-05T11:55:03.994Z,14.50
2018-02-05T11:57:31.489Z,13.70
2018-02-05T11:59:59.009Z,14.20
2018-02-05T12:02:26.513Z,13.17
2018-02-05T12:04:54.038Z,13.63
2018-02-05T12:07:21.542Z,13.77
2018-02-05T12:09:49.838Z,13.10
2018-02-05T12:12:17.358Z,14.33
2018-02-05T12:14:44.878Z,12.73
2018-02-05T12:17:12.390Z,13.27
2018-02-05T12:19:40.678Z,12.83
2018-02-05T12:22:08.943Z,12.07
2018-02-05T12:24:37.230Z,12.20
2018-02-05T12:27:05.498Z,14.00
2018-02-05T12:29:33.782Z,12.30
2018-02-05T12:32:02.051Z,21.53
2018-02-05T12:34:30.334Z,12.03
2018-02-05T12:36:58.618Z,11.10
2018-02-05T12:39:26.445Z,12.70
2018-02-05T12:41:55.565Z,13.50
2018-02-05T12:44:23.838Z,13.80
2018-02-05T12:46:52.127Z,12.53
2018-02-05T12:49:19.634Z,13.10
2018-02-05T12:51:47.157Z,13.70
2018-02-05T12:54:14.658Z,13.30
2018-02-05T12:56:42.184Z,14.37
2018-02-05T12:59:09.689Z,13.40
2018-02-05T13:01:41.205Z,13.30
2018-02-05T13:04:11.370Z,13.30
2018-02-05T13:06:41.627Z,13.27
2018-02-05T13:09:09.138Z,14.70
2018-02-05T13:11:37.444Z,14.80
2018-02-05T13:14:04.976Z,15.03
2018-02-05T13:16:32.490Z,14.57
2018-02-05T13:18:59.998Z,16.70
2018-02-05T13:21:28.311Z,14.80
2018-02-05T13:23:55.822Z,16.00
2018-02-05T13:26:23.346Z,16.90
2018-02-05T13:28:50.854Z,15.90
2018-02-05T13:31:19.138Z,16.47
2018-02-05T13:33:47.410Z,18.20
2018-02-05T13:36:15.971Z,18.47
2018-02-05T13:38:43.470Z,17.73
2018-02-05T13:41:10.993Z,18.77
2018-02-05T13:43:38.499Z,17.43
2018-02-05T13:46:06.023Z,18.77
2018-02-05T13:48:34.295Z,18.90
2018-02-05T13:51:02.582Z,19.20
2018-02-05T13:53:30.849Z,18.90
2018-02-05T13:55:59.135Z,19.20
2018-02-05T13:58:27.402Z,20.77
2018-02-05T14:00:55.685Z,21.73
2018-02-05T14:03:23.959Z,21.27
2018-02-05T14:05:52.258Z,19.87
2018-02-05T14:08:19.770Z,20.73
2018-02-05T14:10:47.289Z,20.60
2018-02-05T14:13:14.790Z,20.70
2018-02-05T14:15:42.310Z,18.60
2018-02-05T14:18:10.211Z,21.07
2018-02-05T14:20:37.731Z,21.73
2018-02-05T14:23:05.251Z,20.13
2018-02-05T14:25:33.518Z,22.53
2018-02-05T14:28:02.358Z,22.50
2018-02-05T14:30:30.427Z,21.83
2018-02-05T14:32:58.730Z,20.63
2018-02-05T14:35:26.230Z,23.47
2018-02-05T14:37:54.513Z,22.73
2018-02-05T14:40:22.019Z,24.30
2018-02-05T14:42:49.533Z,21.87
2018-02-05T14:45:17.034Z,22.67
2018-02-05T14:47:44.550Z,21.20
2018-02-05T14:50:12.055Z,22.30
2018-02-05T14:52:39.569Z,21.97
2018-02-05T14:55:07.082Z,22.67
2018-02-05T14:57:34.602Z,21.33
2018-02-05T15:00:02.102Z,20.77
2018-02-05T15:02:29.622Z,22.03
2018-02-05T15:04:57.130Z,21.20
2018-02-05T15:07:25.427Z,22.20
2018-02-05T15:09:52.930Z,22.20
2018-02-05T15:12:20.446Z,24.43
2018-02-05T15:14:47.956Z,21.93
2018-02-05T15:17:15.475Z,21.80
2018-02-05T15:19:42.982Z,23.07
2018-02-05T15:22:10.506Z,22.10
2018-02-05T15:24:38.018Z,23.10
2018-02-05T15:27:06.307Z,21.00
2018-02-05T15:29:33.813Z,21.53
2018-02-05T15:32:02.097Z,21.63
2018-02-05T15:34:29.593Z,22.57
2018-02-05T15:36:57.924Z,22.70
2018-02-05T15:39:25.411Z,23.70
2018-02-05T15:41:53.701Z,22.47
2018-02-05T15:44:21.970Z,22.97
2018-02-05T15:46:50.262Z,21.10
2018-02-05T15:49:18.530Z,24.47
2018-02-05T15:51:46.823Z,22.20
2018-02-05T15:54:14.326Z,22.23
2018-02-05T15:56:41.838Z,21.27
2018-02-05T15:59:09.351Z,21.93
2018-02-05T16:01:36.857Z,23.77
2018-02-05T16:04:04.373Z,22.00
2018-02-05T16:06:31.878Z,23.97
2018-02-05T16:08:59.398Z,22.43
2018-02-05T16:11:26.899Z,24.10
2018-02-05T16:13:54.414Z,23.83
2018-02-05T16:16:21.919Z,21.87
2018-02-05T16:18:49.437Z,22.37
2018-02-05T16:21:17.697Z,24.50
2018-02-05T16:23:45.215Z,25.00
2018-02-05T16:26:12.713Z,26.63
2018-02-05T16:28:40.310Z,25.60
2018-02-05T16:31:07.819Z,23.63
2018-02-05T16:33:35.333Z,24.00
2018-02-05T16:36:02.838Z,25.83
2018-02-05T16:38:30.359Z,23.20
2018-02-05T16:40:57.862Z,22.37
2018-02-05T16:43:25.382Z,23.63
2018-02-05T16:45:52.885Z,25.67
2018-02-05T16:48:21.195Z,25.97
2018-02-05T16:50:48.698Z,23.87
2018-02-05T16:53:16.213Z,26.47
2018-02-05T16:55:43.714Z,24.13
2018-02-05T16:58:11.239Z,23.80
2018-02-05T17:00:38.744Z,25.80
2018-02-05T17:03:06.294Z,28.37
2018-02-05T17:05:33.802Z,25.70
2018-02-05T17:08:01.330Z,24.57
2018-02-05T17:10:28.845Z,24.10
2018-02-05T17:12:56.407Z,24.63
2018-02-05T17:15:23.910Z,24.97
2018-02-05T17:17:52.184Z,26.27
2018-02-05T17:20:19.702Z,24.53
2018-02-05T17:22:47.213Z,24.57
2018-02-05T17:25:15.508Z,26.20
2018-02-05T17:27:43.010Z,26.83
2018-02-05T17:30:10.536Z,27.37
2018-02-05T17:32:38.038Z,26.77
2018-02-05T17:35:05.570Z,26.40
2018-02-05T17:37:33.086Z,27.27
2018-02-05T17:40:01.379Z,25.67
2018-02-05T17:42:28.944Z,26.00
2018-02-05T17:44:57.197Z,25.70
2018-02-05T17:47:25.467Z,30.07
2018-02-05T17:49:53.758Z,25.60
2018-02-05T17:52:21.271Z,23.20
2018-02-05T17:54:48.773Z,26.60
2018-02-05T17:57:16.301Z,27.30
2018-02-05T17:59:43.806Z,24.40
2018-02-05T18:02:11.332Z,26.47
2018-02-05T18:04:39.606Z,26.00
2018-02-05T18:07:07.897Z,25.93
2018-02-05T18:09:35.398Z,28.43
2018-02-05T18:12:02.919Z,25.60
2018-02-05T18:14:30.428Z,26.17
2018-02-05T18:16:57.951Z,27.27
2018-02-05T18:19:25.462Z,28.00
2018-02-05T18:21:53.755Z,28.77
2018-02-05T18:24:22.030Z,28.50
2018-02-05T18:26:50.322Z,30.83
2018-02-05T18:29:17.826Z,28.60
2018-02-05T18:31:45.350Z,29.10
2018-02-05T18:34:12.859Z,30.03
2018-02-05T18:36:40.457Z,29.67
2018-02-05T18:39:08.718Z,28.80
2018-02-05T18:41:36.989Z,28.00
2018-02-05T18:44:05.276Z,27.37
2018-02-05T18:46:33.552Z,27.57
2018-02-05T18:49:01.839Z,27.57
2018-02-05T18:51:29.346Z,25.70
2018-02-05T18:53:56.886Z,24.10
2018-02-05T18:56:37.015Z,24.67
2018-02-05T18:59:05.278Z,26.00
2018-02-05T19:01:32.782Z,24.47
2018-02-05T19:04:00.303Z,25.70
2018-02-05T19:06:27.806Z,23.10
2018-02-05T19:08:55.325Z,23.50
2018-02-05T19:11:22.830Z,25.60
2018-02-05T19:13:50.350Z,23.87
2018-02-05T19:16:17.850Z,23.97
2018-02-05T19:18:45.370Z,22.60
2018-02-05T19:21:12.878Z,25.17
2018-02-05T19:23:41.181Z,24.00
2018-02-05T19:26:08.695Z,23.10
2018-02-05T19:28:36.201Z,25.40
2018-02-05T19:31:03.723Z,24.87
2018-02-05T19:33:31.230Z,22.50
2018-02-05T19:35:58.746Z,23.20
2018-02-05T19:38:26.248Z,24.50
2018-02-05T19:40:53.769Z,23.70
2018-02-05T19:43:22.041Z,25.93
2018-02-05T19:45:50.326Z,22.47
2018-02-05T19:48:18.598Z,23.50
2018-02-05T19:50:46.890Z,24.60
2018-02-05T19:53:14.442Z,23.17
2018-02-05T19:55:42.730Z,25.53
2018-02-05T19:58:10.237Z,22.03
2018-02-05T20:00:37.758Z,24.37
2018-02-05T20:03:05.282Z,24.70
2018-02-05T20:05:33.570Z,25.57
2018-02-05T20:08:01.843Z,23.63
2018-02-05T20:10:30.127Z,22.00
2018-02-05T20:12:57.638Z,22.03
2018-02-05T20:15:25.195Z,22.93
2018-02-05T20:17:52.703Z,22.33
2018-02-05T20:20:20.210Z,24.03
2018-02-05T20:22:47.731Z,22.50
2018-02-05T20:25:15.294Z,21.30
2018-02-05T20:27:42.853Z,23.97
2018-02-05T20:30:10.401Z,23.33
2018-02-05T20:32:37.918Z,23.00
2018-02-05T20:35:05.481Z,21.37
2018-02-05T20:37:33.007Z,24.13
2018-02-05T20:40:00.527Z,24.63
2018-02-05T20:42:28.816Z,23.83
2018-02-05T20:44:56.326Z,25.37
2018-02-05T20:47:23.846Z,23.07
2018-02-05T20:49:51.354Z,23.23
2018-02-05T20:52:18.879Z,21.70
2018-02-05T20:54:46.386Z,22.43
2018-02-05T20:57:14.659Z,29.87
2018-02-05T20:59:42.945Z,23.97
2018-02-05T21:02:11.219Z,24.87
2018-02-05T21:04:39.506Z,23.13
2018-02-05T21:07:07.010Z,24.27
2018-02-05T21:09:35.306Z,24.60
2018-02-05T21:12:02.845Z,23.90
2018-02-05T21:14:30.362Z,23.40
2018-02-05T21:16:57.873Z,24.73
2018-02-05T21:19:25.437Z,21.83
2018-02-05T21:21:52.949Z,21.73
2018-02-05T21:24:20.519Z,21.93
2018-02-05T21:26:47.998Z,21.20
2018-02-05T21:29:16.290Z,20.90
2018-02-05T21:31:43.796Z,21.90
2018-02-05T21:34:11.370Z,22.00
2018-02-05T21:36:38.874Z,23.00
2018-02-05T21:39:07.209Z,21.13
2018-02-05T21:41:34.747Z,22.80
2018-02-05T21:44:02.312Z,20.23
2018-02-05T21:46:29.819Z,19.97
2018-02-05T21:48:57.369Z,22.63
2018-02-05T21:51:24.870Z,20.00
2018-02-05T21:53:52.374Z,19.83
2018-02-05T21:56:19.934Z,21.03
2018-02-05T21:58:47.424Z,19.80
2018-02-05T22:01:15.853Z,20.20
2018-02-05T22:03:43.448Z,22.60
2018-02-05T22:06:11.112Z,22.27
2018-02-05T22:08:38.704Z,19.50
2018-02-05T22:11:06.309Z,20.47
2018-02-05T22:13:33.906Z,20.63
2018-02-05T22:16:02.334Z,21.30
2018-02-05T22:18:29.940Z,20.43
2018-02-05T22:20:58.305Z,17.73
2018-02-05T22:23:25.885Z,20.43
2018-02-05T22:25:54.296Z,18.87
2018-02-05T22:28:21.932Z,22.80
2018-02-05T22:30:49.543Z,20.03
2018-02-05T22:33:17.144Z,22.00
2018-02-05T22:35:44.643Z,20.67
2018-02-05T22:38:12.149Z,22.50
2018-02-05T22:40:39.670Z,21.70
2018-02-05T22:43:07.174Z,19.60
2018-02-05T22:45:35.462Z,22.47
2018-02-05T22:48:03.731Z,21.83
2018-02-05T22:50:32.074Z,21.03
2018-02-05T22:53:00.354Z,22.10
2018-02-05T22:55:27.884Z,22.10
2018-02-05T22:57:55.387Z,21.50
2018-02-05T23:00:22.934Z,20.20
2018-02-05T23:02:50.468Z,22.80
2018-02-05T23:05:18.082Z,20.70
2018-02-05T23:07:46.394Z,22.00
2018-02-05T23:10:13.924Z,23.27
2018-02-05T23:12:42.234Z,23.13
2018-02-05T23:15:09.844Z,22.50
2018-02-05T23:17:38.152Z,24.17
2018-02-05T23:20:05.801Z,23.33
2018-02-05T23:22:33.373Z,24.07
2018-02-05T23:25:01.005Z,20.80
2018-02-05T23:27:29.369Z,23.07
2018-02-05T23:29:56.882Z,24.03
2018-02-05T23:32:24.410Z,22.50
2018-02-05T23:34:52.970Z,24.70
2018-02-05T23:37:20.505Z,23.90
2018-02-05T23:39:48.010Z,24.67
2018-02-05T23:42:16.301Z,24.93
2018-02-05T23:44:43.806Z,24.87
2018-02-05T23:47:11.335Z,24.00
2018-02-05T23:49:38.838Z,23.80
2018-02-05T23:52:06.373Z,24.87
2018-02-05T23:54:33.882Z,24.60
2018-02-05T23:57:02.170Z,24.37
2018-02-05T23:59:29.678Z,24.27
